createdAt,value
2019-03-11T00:01:35.006Z,3.40
2019-03-11T00:04:04.557Z,3.33
2019-03-11T00:06:34.174Z,3.30
2019-03-11T00:09:05.065Z,4.03
2019-03-11T00:11:36.286Z,5.80
2019-03-11T00:14:05.897Z,5.13
2019-03-11T00:16:35.515Z,7.93
2019-03-11T00:19:05.127Z,4.00
2019-03-11T00:21:35.715Z,5.73
2019-03-11T00:24:05.333Z,6.77
2019-03-11T00:26:34.865Z,4.67
2019-03-11T00:29:04.461Z,2.93
2019-03-11T00:31:34.101Z,5.37
2019-03-11T00:34:03.697Z,3.27
2019-03-11T00:36:34.896Z,4.57
2019-03-11T00:39:06.113Z,4.97
2019-03-11T00:41:35.799Z,2.70
2019-03-11T00:44:05.451Z,1.63
2019-03-11T00:46:35.063Z,3.80
2019-03-11T00:49:04.703Z,6.67
2019-03-11T00:51:34.285Z,2.57
2019-03-11T00:54:03.889Z,4.00
2019-03-11T00:56:33.469Z,5.47
2019-03-11T00:59:03.050Z,3.13
2019-03-11T01:01:32.599Z,4.07
2019-03-11T01:04:02.269Z,1.40
2019-03-11T01:06:31.852Z,6.60
2019-03-11T01:09:01.477Z,2.70
2019-03-11T01:11:33.935Z,5.00
2019-03-11T01:14:03.570Z,2.43
2019-03-11T01:16:33.139Z,5.40
2019-03-11T01:19:02.759Z,4.23
2019-03-11T01:21:32.402Z,3.57
2019-03-11T01:24:02.003Z,4.27
2019-03-11T01:26:31.615Z,3.33
2019-03-11T01:29:01.194Z,4.33
2019-03-11T01:31:30.814Z,3.30
2019-03-11T01:34:00.404Z,3.67
2019-03-11T01:36:29.986Z,5.60
2019-03-11T01:38:59.618Z,3.27
2019-03-11T01:41:29.354Z,5.17
2019-03-11T01:43:58.975Z,1.97
2019-03-11T01:46:28.565Z,3.87
2019-03-11T01:48:59.144Z,4.70
2019-03-11T01:51:28.750Z,3.40
2019-03-11T01:53:58.348Z,4.00
2019-03-11T01:56:27.970Z,2.47
2019-03-11T01:58:57.601Z,2.97
2019-03-11T02:01:27.141Z,3.27
2019-03-11T02:03:56.724Z,3.53
2019-03-11T02:06:26.360Z,3.57
2019-03-11T02:08:55.887Z,2.07
2019-03-11T02:11:25.455Z,5.27
2019-03-11T02:13:55.057Z,3.40
2019-03-11T02:16:24.627Z,2.53
2019-03-11T02:18:54.159Z,6.37
2019-03-11T02:21:23.805Z,3.53
2019-03-11T02:23:53.342Z,3.33
2019-03-11T02:26:22.949Z,5.50
2019-03-11T02:28:54.125Z,3.63
2019-03-11T02:31:23.713Z,1.43
2019-03-11T02:33:53.342Z,3.43
2019-03-11T02:36:24.514Z,3.63
2019-03-11T02:38:54.152Z,4.63
2019-03-11T02:41:26.674Z,4.73
2019-03-11T02:43:56.190Z,3.40
2019-03-11T02:46:25.853Z,5.67
2019-03-11T02:48:55.438Z,3.53
2019-03-11T02:51:26.349Z,3.90
2019-03-11T02:53:55.913Z,5.93
2019-03-11T02:56:25.482Z,4.67
2019-03-11T02:58:55.057Z,5.10
2019-03-11T03:01:49.696Z,3.37
2019-03-11T03:04:35.425Z,3.27
2019-03-11T03:07:06.019Z,6.33
2019-03-11T03:09:35.614Z,6.43
2019-03-11T03:12:05.174Z,2.70
2019-03-11T03:14:34.826Z,4.20
2019-03-11T03:17:07.648Z,5.63
2019-03-11T03:19:37.240Z,2.80
2019-03-11T03:22:06.813Z,7.10
2019-03-11T03:24:36.499Z,4.43
2019-03-11T03:27:06.128Z,3.10
2019-03-11T03:29:35.668Z,4.03
2019-03-11T03:32:05.306Z,5.43
2019-03-11T03:34:34.888Z,3.13
2019-03-11T03:37:04.429Z,4.30
2019-03-11T03:39:34.057Z,5.60
2019-03-11T03:42:15.926Z,3.13
2019-03-11T03:45:39.142Z,3.03
2019-03-11T03:48:08.786Z,2.70
2019-03-11T03:50:39.158Z,3.30
2019-03-11T03:53:08.794Z,2.27
2019-03-11T03:55:39.862Z,3.93
2019-03-11T03:58:09.455Z,3.90
2019-03-11T04:00:39.063Z,3.50
2019-03-11T04:03:08.618Z,5.67
2019-03-11T04:05:39.273Z,6.10
2019-03-11T04:08:08.881Z,5.57
2019-03-11T04:10:38.491Z,4.77
2019-03-11T04:13:08.092Z,6.30
2019-03-11T04:15:37.689Z,3.43
2019-03-11T04:18:09.168Z,4.27
2019-03-11T04:20:40.222Z,5.77
2019-03-11T04:23:09.790Z,3.83
2019-03-11T04:25:40.254Z,2.93
2019-03-11T04:28:09.834Z,5.20
2019-03-11T04:30:39.376Z,5.53
2019-03-11T04:33:12.119Z,2.93
2019-03-11T04:35:41.700Z,3.53
2019-03-11T04:38:11.300Z,5.70
2019-03-11T04:40:40.870Z,4.80
2019-03-11T04:43:10.462Z,6.77
2019-03-11T04:45:40.058Z,3.43
2019-03-11T04:48:09.645Z,6.07
2019-03-11T04:50:39.218Z,4.17
2019-03-11T04:53:08.827Z,6.37
2019-03-11T04:55:38.346Z,6.10
2019-03-11T04:58:07.931Z,4.10
2019-03-11T05:00:38.569Z,3.00
2019-03-11T05:03:08.169Z,4.10
2019-03-11T05:05:37.811Z,2.97
2019-03-11T05:08:07.412Z,5.13
2019-03-11T05:10:36.981Z,5.83
2019-03-11T05:13:06.524Z,3.73
2019-03-11T05:15:37.719Z,4.30
2019-03-11T05:18:07.306Z,4.73
2019-03-11T05:20:36.963Z,3.90
2019-03-11T05:23:06.575Z,4.33
2019-03-11T05:25:36.110Z,5.30
2019-03-11T05:28:05.689Z,3.23
2019-03-11T05:30:35.302Z,5.03
2019-03-11T05:33:04.889Z,4.53
2019-03-11T05:35:34.469Z,3.63
2019-03-11T05:38:04.011Z,4.83
2019-03-11T05:40:33.613Z,6.33
2019-03-11T05:43:03.900Z,6.00
2019-03-11T05:45:33.434Z,5.33
2019-03-11T05:48:04.274Z,5.80
2019-03-11T05:50:33.836Z,7.40
2019-03-11T05:53:03.432Z,3.83
2019-03-11T05:55:33.089Z,3.83
2019-03-11T05:58:03.682Z,4.90
2019-03-11T06:00:34.091Z,6.30
2019-03-11T06:03:03.698Z,4.33
2019-03-11T06:05:33.275Z,3.63
2019-03-11T06:08:02.882Z,4.27
2019-03-11T06:10:32.530Z,7.57
2019-03-11T06:13:02.141Z,5.63
2019-03-11T06:15:31.697Z,7.73
2019-03-11T06:18:01.288Z,7.53
2019-03-11T06:20:52.805Z,6.90
2019-03-11T06:23:22.362Z,4.67
2019-03-11T06:25:52.000Z,4.37
2019-03-11T06:28:21.622Z,3.97
2019-03-11T06:30:51.259Z,4.87
2019-03-11T06:33:20.839Z,4.10
2019-03-11T06:35:50.421Z,4.73
2019-03-11T06:38:20.037Z,6.93
2019-03-11T06:40:49.688Z,12.37
2019-03-11T06:43:19.337Z,118.13
2019-03-11T06:45:49.026Z,111.73
2019-03-11T06:48:18.680Z,182.70
2019-03-11T06:50:48.402Z,131.67
2019-03-11T06:53:19.016Z,140.67
2019-03-11T06:55:48.644Z,126.60
2019-03-11T06:58:18.223Z,133.57
2019-03-11T07:00:47.871Z,124.10
2019-03-11T07:03:17.592Z,95.00
2019-03-11T07:05:47.305Z,104.93
2019-03-11T07:08:17.002Z,74.77
2019-03-11T07:10:46.625Z,72.57
2019-03-11T07:13:16.406Z,73.80
2019-03-11T07:15:46.029Z,82.50
2019-03-11T07:18:15.693Z,63.80
2019-03-11T07:20:45.391Z,59.70
2019-03-11T07:23:14.989Z,38.77
2019-03-11T07:25:44.766Z,52.77
2019-03-11T07:28:14.370Z,55.50
2019-03-11T07:30:43.935Z,55.37
2019-03-11T07:33:13.589Z,49.13
2019-03-11T07:35:43.323Z,51.90
2019-03-11T07:38:12.935Z,48.17
2019-03-11T07:40:42.515Z,52.20
2019-03-11T07:43:12.093Z,33.87
2019-03-11T07:45:41.829Z,43.80
2019-03-11T07:48:11.474Z,39.87
2019-03-11T07:50:41.044Z,32.07
2019-03-11T07:53:10.682Z,30.03
2019-03-11T07:55:40.303Z,36.27
2019-03-11T07:58:09.883Z,30.13
2019-03-11T08:00:39.626Z,29.30
2019-03-11T08:03:09.194Z,27.93
2019-03-11T08:05:38.846Z,19.87
2019-03-11T08:08:09.444Z,23.53
2019-03-11T08:10:39.166Z,22.00
2019-03-11T08:13:08.759Z,17.57
2019-03-11T08:15:38.415Z,37.63
2019-03-11T08:18:10.629Z,28.30
2019-03-11T08:20:39.380Z,36.97
2019-03-11T08:23:09.022Z,16.57
2019-03-11T08:25:38.762Z,35.53
2019-03-11T08:28:09.310Z,15.00
2019-03-11T08:30:38.868Z,19.27
2019-03-11T08:33:09.718Z,11.97
2019-03-11T08:35:39.405Z,13.43
2019-03-11T08:38:09.015Z,15.30
2019-03-11T08:40:38.602Z,18.13
2019-03-11T08:43:08.234Z,16.03
2019-03-11T08:45:37.815Z,19.63
2019-03-11T08:48:08.030Z,11.63
2019-03-11T08:50:37.829Z,8.50
2019-03-11T08:53:07.409Z,21.43
2019-03-11T08:55:37.187Z,18.03
2019-03-11T08:58:06.891Z,16.67
2019-03-11T09:00:36.488Z,10.27
2019-03-11T09:03:06.147Z,13.97
2019-03-11T09:05:35.707Z,12.80
2019-03-11T09:08:05.398Z,11.27
2019-03-11T09:10:35.039Z,6.70
2019-03-11T09:13:07.605Z,12.63
2019-03-11T09:15:37.169Z,9.50
2019-03-11T09:18:06.794Z,9.00
2019-03-11T09:20:37.507Z,13.57
2019-03-11T09:23:08.742Z,7.70
2019-03-11T09:25:38.377Z,15.07
2019-03-11T09:28:08.902Z,3.73
2019-03-11T09:30:38.496Z,9.00
2019-03-11T09:33:08.581Z,8.07
2019-03-11T09:35:38.761Z,8.17
2019-03-11T09:38:08.310Z,7.90
2019-03-11T09:40:38.791Z,12.70
2019-03-11T09:43:08.377Z,9.60
2019-03-11T09:45:37.963Z,11.03
2019-03-11T09:48:07.588Z,9.33
2019-03-11T09:50:37.190Z,16.73
2019-03-11T09:53:06.814Z,9.17
2019-03-11T09:55:36.611Z,7.43
2019-03-11T09:58:06.259Z,6.57
2019-03-11T10:00:35.977Z,15.03
2019-03-11T10:03:05.633Z,8.97
2019-03-11T10:05:35.289Z,10.87
2019-03-11T10:08:04.927Z,7.93
2019-03-11T10:10:34.559Z,3.63
2019-03-11T10:13:04.148Z,7.07
2019-03-11T10:15:34.361Z,6.13
2019-03-11T10:18:04.044Z,10.30
2019-03-11T10:20:33.698Z,8.57
2019-03-11T10:23:03.310Z,6.70
2019-03-11T10:25:32.954Z,9.00
2019-03-11T10:28:02.662Z,9.77
2019-03-11T10:30:32.268Z,5.67
2019-03-11T10:33:01.962Z,9.30
2019-03-11T10:35:32.892Z,5.23
2019-03-11T10:38:03.424Z,6.03
2019-03-11T10:40:33.062Z,5.50
2019-03-11T10:43:02.658Z,7.30
2019-03-11T10:45:32.493Z,6.10
2019-03-11T10:48:02.658Z,8.07
2019-03-11T10:50:32.218Z,9.50
2019-03-11T10:53:01.849Z,4.47
2019-03-11T10:55:31.434Z,8.00
2019-03-11T10:58:01.114Z,10.17
2019-03-11T11:00:31.750Z,5.87
2019-03-11T11:03:01.376Z,5.63
2019-03-11T11:05:30.971Z,5.93
2019-03-11T11:08:02.261Z,4.80
2019-03-11T11:10:31.888Z,9.73
2019-03-11T11:13:01.620Z,5.30
2019-03-11T11:15:31.336Z,2.87
2019-03-11T11:18:00.893Z,7.40
2019-03-11T11:20:31.456Z,8.27
2019-03-11T11:23:01.376Z,11.73
2019-03-11T11:25:32.347Z,7.47
2019-03-11T11:28:01.897Z,16.40
2019-03-11T11:30:31.549Z,5.30
2019-03-11T11:33:01.988Z,5.73
2019-03-11T11:35:31.544Z,9.30
2019-03-11T11:38:01.155Z,6.53
2019-03-11T11:40:30.780Z,9.33
2019-03-11T11:43:01.021Z,5.23
2019-03-11T11:45:30.633Z,7.20
2019-03-11T11:48:00.200Z,3.90
2019-03-11T11:50:30.064Z,10.10
2019-03-11T11:53:00.039Z,3.07
2019-03-11T11:55:29.628Z,5.03
2019-03-11T11:57:59.289Z,5.50
2019-03-11T12:00:30.967Z,6.93
2019-03-11T12:03:01.621Z,7.87
2019-03-11T12:05:31.238Z,4.57
2019-03-11T12:08:00.917Z,7.30
2019-03-11T12:10:30.626Z,7.13
2019-03-11T12:13:00.211Z,4.97
2019-03-11T12:15:29.967Z,5.03
2019-03-11T12:17:59.555Z,5.47
2019-03-11T12:20:29.235Z,6.10
2019-03-11T12:22:58.794Z,4.97
2019-03-11T12:25:28.447Z,5.57
2019-03-11T12:27:58.553Z,5.93
2019-03-11T12:30:28.757Z,7.80
2019-03-11T12:32:58.399Z,4.50
2019-03-11T12:35:28.021Z,6.07
2019-03-11T12:37:57.618Z,2.33
2019-03-11T12:40:27.259Z,6.13
2019-03-11T12:42:57.434Z,5.90
2019-03-11T12:45:27.167Z,3.63
2019-03-11T12:47:56.977Z,5.77
2019-03-11T12:50:26.667Z,2.97
2019-03-11T12:52:56.330Z,5.60
2019-03-11T12:55:26.025Z,4.97
2019-03-11T12:57:55.604Z,5.03
2019-03-11T13:00:25.359Z,5.37
2019-03-11T13:02:55.083Z,5.20
2019-03-11T13:05:24.722Z,7.30
2019-03-11T13:07:54.455Z,4.87
2019-03-11T13:10:24.150Z,4.73
2019-03-11T13:12:53.738Z,4.03
2019-03-11T13:15:23.446Z,6.40
2019-03-11T13:17:53.051Z,3.77
2019-03-11T13:20:31.294Z,3.20
2019-03-11T13:23:00.950Z,7.27
2019-03-11T13:25:30.531Z,7.77
2019-03-11T13:28:01.658Z,6.87
2019-03-11T13:30:34.410Z,3.43
2019-03-11T13:33:04.012Z,7.87
2019-03-11T13:35:33.584Z,4.20
2019-03-11T13:38:04.276Z,4.10
2019-03-11T13:40:33.854Z,4.47
2019-03-11T13:43:03.578Z,4.70
2019-03-11T13:45:33.171Z,7.20
2019-03-11T13:48:03.521Z,5.03
2019-03-11T13:50:33.096Z,7.73
2019-03-11T13:53:02.781Z,5.93
2019-03-11T13:55:32.393Z,4.17
2019-03-11T13:58:01.957Z,6.17
2019-03-11T14:00:31.577Z,5.00
2019-03-11T14:03:04.295Z,3.97
2019-03-11T14:05:33.850Z,4.50
2019-03-11T14:08:04.278Z,6.00
2019-03-11T14:10:34.027Z,4.13
2019-03-11T14:13:03.654Z,5.23
2019-03-11T14:15:33.326Z,6.83
2019-03-11T14:18:02.992Z,4.67
2019-03-11T14:20:32.656Z,8.47
2019-03-11T14:23:03.091Z,3.33
2019-03-11T14:25:34.249Z,5.53
2019-03-11T14:28:03.850Z,6.23
2019-03-11T14:30:33.486Z,4.50
2019-03-11T14:33:04.526Z,5.83
2019-03-11T14:35:34.122Z,4.83
2019-03-11T14:38:03.750Z,5.03
2019-03-11T14:40:34.906Z,4.17
2019-03-11T14:43:04.528Z,3.77
2019-03-11T14:45:34.755Z,4.40
2019-03-11T14:48:04.329Z,4.60
2019-03-11T14:50:34.004Z,5.40
2019-03-11T14:53:03.626Z,4.73
2019-03-11T14:55:33.167Z,6.40
2019-03-11T14:58:02.834Z,4.40
2019-03-11T15:00:33.660Z,4.23
2019-03-11T15:03:03.396Z,5.90
2019-03-11T15:05:34.154Z,5.33
2019-03-11T15:08:03.773Z,5.07
2019-03-11T15:10:34.024Z,4.40
2019-03-11T15:13:03.590Z,5.57
2019-03-11T15:15:33.247Z,6.33
2019-03-11T15:18:02.968Z,6.83
2019-03-11T15:20:32.660Z,3.30
2019-03-11T15:23:07.687Z,5.87
2019-03-11T15:25:33.616Z,3.63
2019-03-11T15:28:03.276Z,5.67
2019-03-11T15:30:33.042Z,3.27
2019-03-11T15:33:02.672Z,4.87
2019-03-11T15:35:32.233Z,5.40
2019-03-11T15:38:01.892Z,6.60
2019-03-11T15:40:33.087Z,7.43
2019-03-11T15:43:02.703Z,3.50
2019-03-11T15:45:38.459Z,3.73
2019-03-11T15:48:03.634Z,5.57
2019-03-11T15:50:33.447Z,5.73
2019-03-11T15:53:03.120Z,7.17
2019-03-11T15:55:32.709Z,4.03
2019-03-11T15:58:03.073Z,7.53
2019-03-11T16:00:32.698Z,2.60
2019-03-11T16:03:02.334Z,4.23
2019-03-11T16:05:32.058Z,5.20
2019-03-11T16:08:01.657Z,4.17
2019-03-11T16:10:31.275Z,2.50
2019-03-11T16:13:00.877Z,3.37
2019-03-11T16:15:30.489Z,2.80
2019-03-11T16:18:00.133Z,5.53
2019-03-11T16:20:29.727Z,4.47
2019-03-11T16:22:59.389Z,4.53
2019-03-11T16:25:29.010Z,3.37
2019-03-11T16:27:58.615Z,3.97
2019-03-11T16:30:28.242Z,3.07
2019-03-11T16:33:00.330Z,3.97
2019-03-11T16:35:29.250Z,3.87
2019-03-11T16:37:58.869Z,3.77
2019-03-11T16:40:28.464Z,3.70
2019-03-11T16:42:58.106Z,2.60
2019-03-11T16:45:27.874Z,2.47
2019-03-11T16:47:58.498Z,4.17
2019-03-11T16:50:28.088Z,4.60
2019-03-11T16:52:58.048Z,1.80
2019-03-11T16:55:30.397Z,6.53
2019-03-11T16:57:59.998Z,2.37
2019-03-11T17:00:34.697Z,4.20
2019-03-11T17:03:04.321Z,2.37
2019-03-11T17:05:33.874Z,4.73
2019-03-11T17:08:03.549Z,3.57
2019-03-11T17:10:33.212Z,6.33
2019-03-11T17:13:02.875Z,5.20
2019-03-11T17:15:35.777Z,4.57
2019-03-11T17:18:05.387Z,3.70
2019-03-11T17:20:34.989Z,2.13
2019-03-11T17:23:05.512Z,4.53
2019-03-11T17:29:10.112Z,5.77
2019-03-11T17:31:39.763Z,4.17
2019-03-11T17:34:09.375Z,3.10
2019-03-11T17:36:38.940Z,3.30
2019-03-11T17:39:08.544Z,2.87
2019-03-11T17:41:39.757Z,5.53
2019-03-11T17:44:10.451Z,5.47
2019-03-11T17:46:40.071Z,4.43
2019-03-11T17:49:09.767Z,2.93
2019-03-11T17:51:39.386Z,4.80
2019-03-11T17:54:09.012Z,3.43
2019-03-11T17:56:38.661Z,6.83
2019-03-11T17:59:08.326Z,3.87
2019-03-11T18:01:37.986Z,3.80
2019-03-11T18:04:07.644Z,1.87
2019-03-11T18:06:37.268Z,4.43
2019-03-11T18:09:07.166Z,4.20
2019-03-11T18:11:36.956Z,5.07
2019-03-11T18:14:09.448Z,2.10
2019-03-11T18:16:39.050Z,4.07
2019-03-11T18:19:08.670Z,2.73
2019-03-11T18:21:41.289Z,4.23
2019-03-11T18:24:10.882Z,3.20
2019-03-11T18:26:40.467Z,3.90
2019-03-11T18:29:10.103Z,2.93
2019-03-11T18:31:39.728Z,2.53
2019-03-11T18:34:09.390Z,5.80
2019-03-11T18:36:39.022Z,3.03
2019-03-11T18:39:09.244Z,2.63
2019-03-11T18:41:40.525Z,4.07
2019-03-11T18:44:10.210Z,2.87
2019-03-11T18:46:43.890Z,2.63
2019-03-11T18:49:13.797Z,2.63
2019-03-11T18:55:10.299Z,3.80
2019-03-11T18:57:39.918Z,4.37
2019-03-11T19:00:10.958Z,6.13
2019-03-11T19:02:41.520Z,2.03
2019-03-11T19:05:12.973Z,2.83
2019-03-11T19:07:43.541Z,2.87
2019-03-11T19:10:14.136Z,3.30
2019-03-11T19:12:45.496Z,5.03
2019-03-11T19:15:16.256Z,3.40
2019-03-11T19:17:45.861Z,5.70
2019-03-11T19:20:16.805Z,6.73
2019-03-11T19:22:46.466Z,3.53
2019-03-11T19:25:16.151Z,3.23
2019-03-11T19:27:45.805Z,4.00
2019-03-11T19:30:17.418Z,2.17
2019-03-11T19:32:47.109Z,3.00
2019-03-11T19:35:17.592Z,4.17
2019-03-11T19:37:47.334Z,4.90
2019-03-11T19:40:17.555Z,3.20
2019-03-11T19:42:47.408Z,3.97
2019-03-11T19:45:18.754Z,2.53
2019-03-11T19:47:48.484Z,2.10
2019-03-11T19:50:18.230Z,3.73
2019-03-11T19:52:58.018Z,3.53
2019-03-11T19:55:19.243Z,2.77
2019-03-11T19:57:48.867Z,4.57
2019-03-11T20:00:19.029Z,4.07
2019-03-11T20:02:48.688Z,3.97
2019-03-11T20:05:20.189Z,2.67
2019-03-11T20:07:49.853Z,3.80
2019-03-11T20:10:19.550Z,3.90
2019-03-11T20:12:49.187Z,4.17
2019-03-11T20:15:18.813Z,2.90
2019-03-11T20:17:48.805Z,6.50
2019-03-11T20:20:18.512Z,3.10
2019-03-11T20:22:48.209Z,2.53
2019-03-11T20:25:25.882Z,1.23
2019-03-11T20:27:55.522Z,4.33
2019-03-11T20:30:25.147Z,1.37
2019-03-11T20:32:54.929Z,1.37
2019-03-11T20:35:24.555Z,3.70
2019-03-11T20:37:54.284Z,2.40
2019-03-11T20:40:23.921Z,3.43
2019-03-11T20:42:53.573Z,1.83
2019-03-11T20:45:23.189Z,4.90
2019-03-11T20:47:52.930Z,2.47
2019-03-11T20:50:22.600Z,2.63
2019-03-11T20:52:52.250Z,1.47
2019-03-11T20:55:21.833Z,4.70
2019-03-11T20:57:51.586Z,3.03
2019-03-11T21:00:21.513Z,2.83
2019-03-11T21:02:51.282Z,2.53
2019-03-11T21:05:23.490Z,3.80
2019-03-11T21:07:53.239Z,1.77
2019-03-11T21:10:23.015Z,1.57
2019-03-11T21:12:52.694Z,2.97
2019-03-11T21:15:22.396Z,2.80
2019-03-11T21:17:52.112Z,5.17
2019-03-11T21:20:21.732Z,5.43
2019-03-11T21:22:51.355Z,2.63
2019-03-11T21:25:21.081Z,4.87
2019-03-11T21:27:50.704Z,3.43
2019-03-11T21:30:20.599Z,3.33
2019-03-11T21:32:51.405Z,3.20
2019-03-11T21:35:21.207Z,3.63
2019-03-11T21:37:51.021Z,3.27
2019-03-11T21:40:20.687Z,2.50
2019-03-11T21:42:50.562Z,1.80
2019-03-11T21:45:32.994Z,4.03
2019-03-11T21:47:52.725Z,3.70
2019-03-11T21:50:22.411Z,1.93
2019-03-11T21:52:52.129Z,2.00
2019-03-11T21:55:21.773Z,4.03
2019-03-11T21:57:51.537Z,2.50
2019-03-11T22:00:33.066Z,3.03
2019-03-11T22:02:53.992Z,2.83
2019-03-11T22:05:26.711Z,2.30
2019-03-11T22:07:56.312Z,2.27
2019-03-11T22:10:25.920Z,2.07
2019-03-11T22:12:55.622Z,3.73
2019-03-11T22:15:25.265Z,3.03
2019-03-11T22:17:54.934Z,1.53
2019-03-11T22:20:24.539Z,1.90
2019-03-11T22:22:55.437Z,3.23
2019-03-11T22:25:25.002Z,2.87
2019-03-11T22:27:54.631Z,1.43
2019-03-11T22:30:24.262Z,1.87
2019-03-11T22:32:53.871Z,3.07
2019-03-11T22:35:23.477Z,2.97
2019-03-11T22:37:53.122Z,2.87
2019-03-11T22:40:22.730Z,1.23
2019-03-11T22:42:52.355Z,1.30
2019-03-11T22:45:22.056Z,1.63
2019-03-11T22:47:51.827Z,1.93
2019-03-11T22:50:21.456Z,4.83
2019-03-11T22:52:51.112Z,3.90
2019-03-11T22:55:21.954Z,2.13
2019-03-11T22:57:51.542Z,1.40
2019-03-11T23:00:29.314Z,2.13
2019-03-11T23:03:00.561Z,2.80
2019-03-11T23:05:30.191Z,1.83
2019-03-11T23:07:59.918Z,3.80
2019-03-11T23:10:29.526Z,2.10
2019-03-11T23:12:59.178Z,1.83
2019-03-11T23:15:28.854Z,2.20
2019-03-11T23:17:58.491Z,2.07
2019-03-11T23:20:28.095Z,1.37
2019-03-11T23:22:57.684Z,2.23
2019-03-11T23:25:27.369Z,2.43
2019-03-11T23:27:56.961Z,3.37
2019-03-11T23:30:26.627Z,3.90
2019-03-11T23:32:56.218Z,1.80
2019-03-11T23:35:25.903Z,2.20
2019-03-11T23:37:55.499Z,3.17
2019-03-11T23:40:25.069Z,2.43
2019-03-11T23:42:54.702Z,4.20
2019-03-11T23:45:24.316Z,2.77
2019-03-11T23:47:54.959Z,1.80
2019-03-11T23:50:24.591Z,2.07
2019-03-11T23:52:54.192Z,1.40
2019-03-11T23:55:23.785Z,2.33
2019-03-11T23:57:53.410Z,2.03
